createdAt,value
2017-07-04T00:00:23.603Z,54.3
2017-07-04T00:01:22.680Z,54.6
2017-07-04T00:03:22.049Z,54.3
2017-07-04T00:04:20.891Z,54.6
2017-07-04T00:06:19.490Z,54.4
2017-07-04T00:07:18.691Z,54.7
2017-07-04T00:08:18.413Z,54.8
2017-07-04T00:09:17.883Z,54.5
2017-07-04T00:10:17.093Z,54.4
2017-07-04T00:11:16.436Z,54.6
2017-07-04T00:12:15.771Z,54.7
2017-07-04T00:13:15.240Z,54.7
2017-07-04T00:14:14.204Z,54.9
2017-07-04T00:15:13.798Z,54.8
2017-07-04T00:15:44.219Z,54.8
2017-07-04T00:16:14.247Z,54.9
2017-07-04T00:16:44.658Z,54.9
2017-07-04T00:17:15.063Z,54.8
2017-07-04T00:17:45.853Z,54.8
2017-07-04T00:18:15.883Z,55
2017-07-04T00:19:11.194Z,55
2017-07-04T00:20:10.273Z,55
2017-07-04T00:21:09.484Z,55.2
2017-07-04T00:22:08.955Z,55.2
2017-07-04T00:23:08.045Z,54.9
2017-07-04T00:24:07.391Z,55
2017-07-04T00:25:07.239Z,55.2
2017-07-04T00:26:06.333Z,55
2017-07-04T00:27:05.816Z,55.2
2017-07-04T00:28:05.039Z,55.4
2017-07-04T00:29:04.127Z,55.4
2017-07-04T00:30:03.340Z,55.4
2017-07-04T00:31:02.672Z,55.5
2017-07-04T00:32:02.137Z,55.5
2017-07-04T00:33:01.352Z,55.3
2017-07-04T00:34:00.936Z,55.5
2017-07-04T00:35:00.406Z,55.4
2017-07-04T00:35:59.365Z,55.4
2017-07-04T00:36:59.075Z,55.4
2017-07-04T00:37:58.493Z,55.4
2017-07-04T00:38:57.837Z,55.5
2017-07-04T00:39:56.432Z,55.5
2017-07-04T00:40:56.273Z,55.7
2017-07-04T00:41:55.236Z,55.8
2017-07-04T00:42:54.955Z,55.8
2017-07-04T00:43:54.303Z,55.7
2017-07-04T00:44:53.396Z,55.9
2017-07-04T00:45:52.610Z,56.1
2017-07-04T00:46:52.209Z,55.7
2017-07-04T00:47:51.404Z,55.9
2017-07-04T00:48:50.621Z,56
2017-07-04T00:49:50.094Z,55.4
2017-07-04T00:50:49.447Z,55.7
2017-07-04T00:51:48.665Z,55.6
2017-07-04T00:52:18.945Z,55.6
2017-07-04T00:52:49.465Z,56
2017-07-04T00:53:20.295Z,56
2017-07-04T00:54:46.556Z,56
2017-07-04T00:55:45.898Z,56
2017-07-04T00:56:45.239Z,55.8
2017-07-04T00:57:44.458Z,55.9
2017-07-04T00:58:44.176Z,55.8
2017-07-04T00:59:43.031Z,56.2
2017-07-04T01:00:42.515Z,55.5
2017-07-04T01:01:41.859Z,55.5
2017-07-04T01:02:41.571Z,55.5
2017-07-04T01:03:40.648Z,54.8
2017-07-04T01:05:39.383Z,55.1
2017-07-04T01:06:38.473Z,55.3
2017-07-04T01:08:37.200Z,55.4
2017-07-04T01:09:36.525Z,55.7
2017-07-04T01:10:35.879Z,55.9
2017-07-04T01:11:35.104Z,56.4
2017-07-04T01:12:05.897Z,56.4
2017-07-04T01:13:33.798Z,56.6
2017-07-04T01:14:32.822Z,56.7
2017-07-04T01:15:32.412Z,56.7
2017-07-04T01:17:31.020Z,56.9
2017-07-04T01:18:30.110Z,57.4
2017-07-04T01:19:29.700Z,57.7
2017-07-04T01:20:29.175Z,57.6
2017-07-04T01:21:28.517Z,57.9
2017-07-04T01:21:59.038Z,57.9
2017-07-04T01:22:29.307Z,57.9
2017-07-04T01:22:59.823Z,57.9
2017-07-04T01:23:30.356Z,58
2017-07-04T01:24:00.874Z,58
2017-07-04T01:25:25.632Z,58.4
2017-07-04T01:26:24.843Z,58.3
2017-07-04T01:27:24.313Z,58.2
2017-07-04T01:28:23.647Z,58.3
2017-07-04T01:29:22.748Z,58.7
2017-07-04T01:30:21.836Z,58.7
2017-07-04T01:31:22.006Z,59
2017-07-04T01:32:20.982Z,59.2
2017-07-04T01:33:20.195Z,59
2017-07-04T01:34:19.539Z,59.1
2017-07-04T01:35:18.384Z,59.6
2017-07-04T01:36:18.093Z,59.4
2017-07-04T01:37:17.180Z,59.5
2017-07-04T01:38:17.034Z,59.6
2017-07-04T01:39:16.253Z,60
2017-07-04T01:40:15.473Z,60.2
2017-07-04T01:41:14.811Z,60.6
2017-07-04T01:42:14.024Z,60.7
2017-07-04T01:43:13.231Z,61.1
2017-07-04T01:44:12.838Z,61.2
2017-07-04T01:45:11.820Z,61.2
2017-07-04T01:46:11.039Z,61.2
2017-07-04T01:47:10.752Z,61.4
2017-07-04T01:48:10.790Z,61.4
2017-07-04T01:49:09.124Z,61.7
2017-07-04T01:50:08.347Z,62.2
2017-07-04T01:51:07.495Z,62.4
2017-07-04T01:52:07.081Z,62.4
2017-07-04T01:53:06.179Z,62.5
2017-07-04T01:54:05.649Z,62.7
2017-07-04T01:55:04.872Z,63.2
2017-07-04T01:56:04.471Z,63.5
2017-07-04T01:57:03.554Z,66.9
2017-07-04T01:58:02.961Z,67.8
2017-07-04T01:59:02.062Z,69.9
2017-07-04T02:00:01.665Z,70.8
2017-07-04T02:01:00.881Z,71.5
2017-07-04T02:02:00.103Z,71.5
2017-07-04T02:02:59.815Z,73.6
2017-07-04T02:03:58.523Z,72.5
2017-07-04T02:05:57.521Z,72.8
2017-07-04T02:06:57.112Z,73
2017-07-04T02:07:55.952Z,74.6
2017-07-04T02:08:55.042Z,75.5
2017-07-04T02:09:54.634Z,74
2017-07-04T02:10:54.230Z,74.9
2017-07-04T02:11:52.958Z,75.2
2017-07-04T02:12:52.678Z,76.1
2017-07-04T02:13:51.515Z,76.5
2017-07-04T02:14:50.723Z,75.2
2017-07-04T02:15:50.441Z,76
2017-07-04T02:16:20.721Z,76
2017-07-04T02:16:51.246Z,74.7
2017-07-04T02:17:48.823Z,75.2
2017-07-04T02:18:48.533Z,75.2
2017-07-04T02:19:47.889Z,76.4
2017-07-04T02:20:46.980Z,76.4
2017-07-04T02:21:46.187Z,76.4
2017-07-04T02:22:45.533Z,76.4
2017-07-04T02:23:44.636Z,76.4
2017-07-04T02:24:43.981Z,75.6
2017-07-04T02:25:43.578Z,76.4
2017-07-04T02:26:42.418Z,76.7
2017-07-04T02:28:41.720Z,76.1
2017-07-04T02:29:40.179Z,75.8
2017-07-04T02:30:39.884Z,75.5
2017-07-04T02:31:38.981Z,75.5
2017-07-04T02:32:38.319Z,76.1
2017-07-04T02:33:37.649Z,76.2
2017-07-04T02:34:37.487Z,76.6
2017-07-04T02:35:36.452Z,76.6
2017-07-04T02:36:36.031Z,76
2017-07-04T02:37:34.733Z,76.2
2017-07-04T02:38:33.820Z,76.6
2017-07-04T02:39:33.289Z,76.7
2017-07-04T02:40:32.754Z,76.7
2017-07-04T02:41:31.843Z,76.7
2017-07-04T02:42:31.312Z,76.1
2017-07-04T02:43:30.396Z,76.5
2017-07-04T02:44:30.121Z,76.3
2017-07-04T02:45:29.464Z,76.6
2017-07-04T02:46:28.558Z,76.7
2017-07-04T02:47:27.777Z,76.7
2017-07-04T02:48:27.375Z,75.8
2017-07-04T02:49:26.218Z,76.5
2017-07-04T02:50:25.688Z,76.5
2017-07-04T02:51:24.781Z,76.7
2017-07-04T02:52:24.499Z,76
2017-07-04T02:53:23.611Z,76.2
2017-07-04T02:54:22.781Z,75.4
2017-07-04T02:55:21.878Z,76.5
2017-07-04T02:56:21.469Z,75.1
2017-07-04T02:57:20.441Z,76
2017-07-04T02:58:19.787Z,76
2017-07-04T02:59:19.009Z,74.4
2017-07-04T03:00:18.603Z,75.5
2017-07-04T03:01:17.693Z,75.6
2017-07-04T03:02:16.787Z,75.6
2017-07-04T03:03:16.257Z,75.8
2017-07-04T03:04:15.610Z,76.2
2017-07-04T03:05:14.828Z,75.8
2017-07-04T03:06:14.374Z,76.1
2017-07-04T03:07:13.457Z,75.5
2017-07-04T03:08:12.622Z,75.2
2017-07-04T03:09:11.971Z,75.7
2017-07-04T03:10:11.198Z,75.5
2017-07-04T03:11:10.673Z,75.3
2017-07-04T03:12:09.772Z,76
2017-07-04T03:13:09.252Z,75.5
2017-07-04T03:14:08.599Z,75.3
2017-07-04T03:15:07.828Z,75.3
2017-07-04T03:15:38.794Z,75.3
2017-07-04T03:17:06.440Z,75.6
2017-07-04T03:18:05.538Z,74.3
2017-07-04T03:19:04.899Z,75.1
2017-07-04T03:20:03.874Z,74.4
2017-07-04T03:21:03.718Z,75.1
2017-07-04T03:22:02.951Z,74.3
2017-07-04T03:23:02.082Z,75
2017-07-04T03:24:01.194Z,74.1
2017-07-04T03:25:00.430Z,74
2017-07-04T03:25:59.775Z,74.5
2017-07-04T03:26:30.060Z,74.5
2017-07-04T03:27:00.333Z,73.9
2017-07-04T03:27:58.800Z,74.2
2017-07-04T03:28:57.641Z,74.5
2017-07-04T03:29:56.867Z,75.1
2017-07-04T03:30:56.215Z,74.4
2017-07-04T03:31:55.691Z,74.1
2017-07-04T03:32:54.787Z,73.9
2017-07-04T03:33:54.331Z,73.9
2017-07-04T03:34:53.563Z,73.9
2017-07-04T03:35:53.029Z,73.7
2017-07-04T03:36:52.250Z,73.7
2017-07-04T03:37:51.217Z,73.2
2017-07-04T03:38:50.947Z,73.5
2017-07-04T03:39:50.176Z,73.5
2017-07-04T03:40:49.476Z,73.5
2017-07-04T03:41:48.328Z,74.1
2017-07-04T03:42:47.675Z,73.8
2017-07-04T03:44:46.032Z,74
2017-07-04T03:46:44.640Z,73.3
2017-07-04T03:47:44.241Z,73.2
2017-07-04T03:48:43.597Z,73.5
2017-07-04T03:49:42.317Z,72.6
2017-07-04T03:50:42.031Z,73.3
2017-07-04T03:51:41.131Z,73.3
2017-07-04T03:52:40.216Z,73
2017-07-04T03:53:39.570Z,72.4
2017-07-04T03:54:38.912Z,72.1
2017-07-04T03:56:37.788Z,72.1
2017-07-04T03:58:36.400Z,71.4
2017-07-04T03:59:35.757Z,71.8
2017-07-04T04:00:34.979Z,72.6
2017-07-04T04:01:33.688Z,72.6
2017-07-04T04:02:33.162Z,72.3
2017-07-04T04:03:32.777Z,72.3
2017-07-04T04:04:31.752Z,71.6
2017-07-04T04:05:30.869Z,71.8
2017-07-04T04:06:30.348Z,71.8
2017-07-04T04:07:29.695Z,71.7
2017-07-04T04:08:28.793Z,71.7
2017-07-04T04:09:28.266Z,71.7
2017-07-04T04:10:27.367Z,70.7
2017-07-04T04:11:27.097Z,71
2017-07-04T04:12:26.458Z,71
2017-07-04T04:13:25.568Z,70.7
2017-07-04T04:14:24.916Z,70.7
2017-07-04T04:15:24.016Z,71.2
2017-07-04T04:16:23.112Z,71.1
2017-07-04T04:17:22.716Z,70.7
2017-07-04T04:18:21.823Z,69.7
2017-07-04T04:19:20.918Z,70.1
2017-07-04T04:20:20.390Z,70.1
2017-07-04T04:20:50.797Z,70.1
2017-07-04T04:21:21.466Z,70.6
2017-07-04T04:22:18.930Z,70.6
2017-07-04T04:23:18.745Z,70.3
2017-07-04T04:24:17.222Z,70.7
2017-07-04T04:25:16.821Z,70.4
2017-07-04T04:26:15.916Z,70.4
2017-07-04T04:27:15.393Z,70.4
2017-07-04T04:28:14.604Z,70.5
2017-07-04T04:29:14.331Z,69.7
2017-07-04T04:30:13.433Z,69.7
2017-07-04T04:31:12.269Z,69.6
2017-07-04T04:32:11.738Z,70
2017-07-04T04:33:10.835Z,69.7
2017-07-04T04:35:10.079Z,69.6
2017-07-04T04:36:09.164Z,68.7
2017-07-04T04:37:08.517Z,68.8
2017-07-04T04:38:07.729Z,69
2017-07-04T04:39:06.687Z,68.6
2017-07-04T04:40:05.910Z,68.6
2017-07-04T04:41:05.133Z,67.6
2017-07-04T04:42:04.613Z,67.2
2017-07-04T04:43:03.704Z,67.8
2017-07-04T04:44:02.934Z,67.8
2017-07-04T04:45:02.786Z,66.8
2017-07-04T04:46:01.744Z,66.9
2017-07-04T04:47:01.095Z,66.5
2017-07-04T04:48:00.308Z,66.2
2017-07-04T04:48:59.524Z,66.8
2017-07-04T04:49:58.761Z,66.2
2017-07-04T04:50:57.871Z,66.7
2017-07-04T04:51:57.471Z,66.3
2017-07-04T04:52:56.567Z,66.3
2017-07-04T04:53:27.225Z,66.3
2017-07-04T04:53:57.886Z,66.4
2017-07-04T04:54:55.717Z,66.8
2017-07-04T04:55:54.451Z,66.9
2017-07-04T04:56:53.678Z,67.3
2017-07-04T04:57:52.898Z,67.3
2017-07-04T04:58:52.750Z,65.7
2017-07-04T04:59:51.595Z,66.4
2017-07-04T05:00:51.200Z,66.6
2017-07-04T05:01:21.728Z,66.6
2017-07-04T05:01:52.002Z,66.6
2017-07-04T05:02:22.663Z,66.6
2017-07-04T05:02:52.828Z,66.6
2017-07-04T05:03:49.025Z,65.2
2017-07-04T05:04:48.123Z,65.3
2017-07-04T05:06:46.736Z,65.1
2017-07-04T05:07:45.694Z,66.2
2017-07-04T05:08:45.552Z,65.6
2017-07-04T05:09:45.034Z,65.2
2017-07-04T05:10:43.882Z,65.2
2017-07-04T05:11:43.354Z,66.3
2017-07-04T05:12:42.204Z,65.6
2017-07-04T05:13:41.922Z,65.8
2017-07-04T05:14:12.580Z,65.8
2017-07-04T05:14:42.620Z,65.7
2017-07-04T05:15:13.037Z,65.7
2017-07-04T05:15:43.571Z,65.5
2017-07-04T05:16:39.784Z,64.4
2017-07-04T05:17:39.258Z,64.5
2017-07-04T05:18:38.036Z,64.7
2017-07-04T05:19:37.791Z,64.7
2017-07-04T05:20:36.575Z,64.4
2017-07-04T05:21:35.929Z,64.5
2017-07-04T05:22:35.160Z,64.6
2017-07-04T05:23:34.263Z,63.8
2017-07-04T05:24:33.731Z,64
2017-07-04T05:25:32.946Z,64.1
2017-07-04T05:26:32.536Z,64.1
2017-07-04T05:27:31.763Z,64.1
2017-07-04T05:28:31.114Z,63.8
2017-07-04T05:29:30.342Z,63.3
2017-07-04T05:30:29.578Z,63.5
2017-07-04T05:31:28.671Z,63.1
2017-07-04T05:32:28.655Z,63.1
2017-07-04T05:32:58.691Z,63.1
2017-07-04T05:33:29.236Z,62.6
2017-07-04T05:33:59.894Z,62.6
2017-07-04T05:35:26.039Z,61.9
2017-07-04T05:36:25.256Z,61.9
2017-07-04T05:38:23.859Z,60.8
2017-07-04T05:39:23.079Z,60.2
2017-07-04T05:40:22.309Z,58.3
2017-07-04T05:41:22.032Z,58.7
2017-07-04T05:42:21.385Z,58.3
2017-07-04T05:43:20.776Z,57.6
2017-07-04T05:44:19.611Z,57.1
2017-07-04T05:45:19.216Z,56.8
2017-07-04T05:46:18.312Z,56.7
2017-07-04T05:47:17.664Z,56
2017-07-04T05:48:16.761Z,54.6
2017-07-04T05:49:16.114Z,54.9
2017-07-04T05:50:15.213Z,54.4
2017-07-04T05:51:14.820Z,55.1
2017-07-04T05:52:14.004Z,54.1
2017-07-04T05:53:13.236Z,54.2
2017-07-04T05:54:12.723Z,54.2
2017-07-04T05:55:12.533Z,54.1
2017-07-04T05:56:11.119Z,54.7
2017-07-04T05:57:11.180Z,54.7
2017-07-04T05:58:09.519Z,55.1
2017-07-04T05:59:09.371Z,55.2
2017-07-04T06:00:08.477Z,54.2
2017-07-04T06:01:07.572Z,54.5
2017-07-04T06:02:07.306Z,54.4
2017-07-04T06:03:06.407Z,53.7
2017-07-04T06:04:05.712Z,53.8
2017-07-04T06:05:05.047Z,53.4
2017-07-04T06:06:03.835Z,53.4
2017-07-04T06:07:03.671Z,53.7
2017-07-04T06:08:02.766Z,53.9
2017-07-04T06:09:02.014Z,53
2017-07-04T06:10:01.119Z,53.5
2017-07-04T06:11:00.601Z,52.5
2017-07-04T06:11:59.697Z,52.5
2017-07-04T06:12:59.035Z,53.8
2017-07-04T06:13:58.513Z,53.5
2017-07-04T06:14:57.866Z,53.6
2017-07-04T06:15:57.479Z,53.4
2017-07-04T06:16:56.590Z,53.1
2017-07-04T06:17:55.951Z,53.1
2017-07-04T06:18:55.048Z,52.3
2017-07-04T06:19:54.524Z,52.3
2017-07-04T06:20:53.489Z,51.3
2017-07-04T06:21:52.839Z,50.8
2017-07-04T06:22:52.311Z,51
2017-07-04T06:23:51.348Z,51
2017-07-04T06:24:51.071Z,50.9
2017-07-04T06:25:50.160Z,50.8
2017-07-04T06:26:49.261Z,50.1
2017-07-04T06:27:48.978Z,49.8
2017-07-04T06:28:48.195Z,49.8
2017-07-04T06:29:47.171Z,49.8
2017-07-04T06:30:46.637Z,49.2
2017-07-04T06:31:46.225Z,48.6
2017-07-04T06:32:45.311Z,48.2
2017-07-04T06:33:44.647Z,47.5
2017-07-04T06:34:43.859Z,47.7
2017-07-04T06:35:43.089Z,48.3
2017-07-04T06:36:42.309Z,48.8
2017-07-04T06:37:41.532Z,47.7
2017-07-04T06:38:41.007Z,47.7
2017-07-04T06:39:41.062Z,49
2017-07-04T06:40:10.585Z,49
2017-07-04T06:40:41.117Z,47.7
2017-07-04T06:41:11.532Z,47.7
2017-07-04T06:41:41.937Z,47.6
2017-07-04T06:42:38.272Z,47.6
2017-07-04T06:43:37.256Z,47.1
2017-07-04T06:44:37.113Z,47.5
2017-07-04T06:45:36.210Z,48.2
2017-07-04T06:46:35.434Z,48.2
2017-07-04T06:47:35.228Z,49
2017-07-04T06:48:34.074Z,48.2
2017-07-04T06:49:33.427Z,48.3
2017-07-04T06:50:32.537Z,49.3
2017-07-04T06:51:32.140Z,49.6
2017-07-04T06:52:31.367Z,50.6
2017-07-04T06:53:30.580Z,50.7
2017-07-04T06:54:29.806Z,49.5
2017-07-04T06:55:29.282Z,49.7
2017-07-04T06:56:28.623Z,50
2017-07-04T06:57:27.976Z,50.2
2017-07-04T06:58:27.455Z,49.4
2017-07-04T06:59:26.555Z,50.4
2017-07-04T07:00:25.781Z,49.5
2017-07-04T07:01:25.001Z,48.7
2017-07-04T07:02:24.610Z,48.1
2017-07-04T07:03:23.956Z,48.1
2017-07-04T07:04:23.307Z,48.1
2017-07-04T07:05:22.527Z,49
2017-07-04T07:06:21.636Z,48.8
2017-07-04T07:07:21.113Z,49.4
2017-07-04T07:09:19.595Z,50.3
2017-07-04T07:10:18.688Z,50.4
2017-07-04T07:11:18.538Z,50
2017-07-04T07:12:17.829Z,50.4
2017-07-04T07:13:17.186Z,50.3
2017-07-04T07:14:16.786Z,50.6
2017-07-04T07:15:15.634Z,50.5
2017-07-04T07:16:15.116Z,49.9
2017-07-04T07:17:14.706Z,49.7
2017-07-04T07:18:13.549Z,49.7
2017-07-04T07:19:12.907Z,49.7
2017-07-04T07:20:12.000Z,50.3
2017-07-04T07:20:42.668Z,50.3
2017-07-04T07:21:13.072Z,50.3
2017-07-04T07:21:43.481Z,50.3
2017-07-04T07:22:13.905Z,50.3
2017-07-04T07:23:10.233Z,49.5
2017-07-04T07:24:09.529Z,49.2
2017-07-04T07:25:08.756Z,49.6
2017-07-04T07:26:08.165Z,50.2
2017-07-04T07:27:07.388Z,50.4
2017-07-04T07:28:06.990Z,51.2
2017-07-04T07:29:06.084Z,51
2017-07-04T07:30:05.564Z,51.4
2017-07-04T07:31:04.915Z,51
2017-07-04T07:32:04.135Z,50.9
2017-07-04T07:32:34.796Z,50.9
2017-07-04T07:33:05.208Z,51.3
2017-07-04T07:33:35.874Z,51.3
2017-07-04T07:35:02.401Z,52.2
2017-07-04T07:36:01.373Z,52
2017-07-04T07:37:00.981Z,52
2017-07-04T07:38:59.735Z,51.2
2017-07-04T07:39:58.578Z,51.6
2017-07-04T07:40:57.924Z,51.2
2017-07-04T07:41:57.654Z,51.2
2017-07-04T07:42:56.754Z,51
2017-07-04T07:43:56.356Z,50.8
2017-07-04T07:44:55.079Z,50.6
2017-07-04T07:45:54.681Z,50.7
2017-07-04T07:46:54.289Z,49
2017-07-04T07:47:53.509Z,49
2017-07-04T07:48:52.737Z,49.5
2017-07-04T07:49:51.955Z,49.4
2017-07-04T07:50:51.434Z,47.1
2017-07-04T07:51:50.655Z,47.4
2017-07-04T07:52:50.383Z,47.3
2017-07-04T07:53:20.787Z,47.3
2017-07-04T07:53:51.193Z,47.1
2017-07-04T07:54:48.777Z,46.6
2017-07-04T07:55:47.995Z,46.6
2017-07-04T07:56:47.354Z,46.6
2017-07-04T07:57:46.824Z,46.5
2017-07-04T07:58:46.175Z,46
2017-07-04T07:59:45.654Z,45.5
2017-07-04T08:00:45.137Z,45.1
2017-07-04T08:01:44.093Z,43.7
2017-07-04T08:02:43.558Z,43.8
2017-07-04T08:03:43.029Z,42.9
2017-07-04T08:04:41.745Z,42.7
2017-07-04T08:05:41.318Z,42.4
2017-07-04T08:06:40.785Z,41.3
2017-07-04T08:07:40.134Z,41.3
2017-07-04T08:08:39.606Z,41.3
2017-07-04T08:09:38.708Z,42
2017-07-04T08:10:38.551Z,41.7
2017-07-04T08:11:37.144Z,41.8
2017-07-04T08:12:36.867Z,41.9
2017-07-04T08:13:36.205Z,41.9
2017-07-04T08:14:35.556Z,41.1
2017-07-04T08:15:35.143Z,41.3
2017-07-04T08:16:34.360Z,41
2017-07-04T08:17:33.630Z,40.8
2017-07-04T08:18:32.857Z,42
2017-07-04T08:19:32.077Z,41.6
2017-07-04T08:20:31.184Z,42.6
2017-07-04T08:21:31.044Z,43.6
2017-07-04T08:22:30.258Z,44
2017-07-04T08:23:29.488Z,43.9
2017-07-04T08:24:28.961Z,44.2
2017-07-04T08:25:28.305Z,44.4
2017-07-04T08:26:27.651Z,43.7
2017-07-04T08:27:26.868Z,44.8
2017-07-04T08:28:26.080Z,44.8
2017-07-04T08:29:25.929Z,45.6
2017-07-04T08:31:24.542Z,46.2
2017-07-04T08:32:23.756Z,45.8
2017-07-04T08:33:23.478Z,46.8
2017-07-04T08:35:21.590Z,46.4
2017-07-04T08:36:20.815Z,47.3
2017-07-04T08:37:20.412Z,47.2
2017-07-04T08:38:19.760Z,47.7
2017-07-04T08:39:18.980Z,47.5
2017-07-04T08:40:19.155Z,47.5
2017-07-04T08:41:17.613Z,47.6
2017-07-04T08:42:16.840Z,47.4
2017-07-04T08:43:16.567Z,47.6
2017-07-04T08:44:15.787Z,47.9
2017-07-04T08:45:15.142Z,48.1
2017-07-04T08:46:14.489Z,48
2017-07-04T08:47:13.633Z,47.6
2017-07-04T08:48:13.322Z,47.6
2017-07-04T08:49:13.132Z,47.6
2017-07-04T08:50:11.972Z,48.1
2017-07-04T08:51:11.202Z,48.4
2017-07-04T08:52:10.934Z,47.9
2017-07-04T08:53:10.286Z,47.6
2017-07-04T08:54:09.641Z,47.1
2017-07-04T08:55:08.681Z,47.4
2017-07-04T08:56:08.034Z,46.6
2017-07-04T08:57:07.127Z,46.7
2017-07-04T08:58:06.729Z,47.2
2017-07-04T08:59:05.943Z,47.4
2017-07-04T09:00:05.179Z,47.3
2017-07-04T09:01:04.779Z,47.1
2017-07-04T09:02:04.116Z,47.2
2017-07-04T09:03:03.457Z,47.5
2017-07-04T09:04:02.430Z,47
2017-07-04T09:05:02.032Z,46.8
2017-07-04T09:06:01.630Z,46.8
2017-07-04T09:07:00.738Z,46.6
2017-07-04T09:08:00.215Z,46.1
2017-07-04T09:08:59.193Z,45.8
2017-07-04T09:09:58.914Z,46.2
2017-07-04T09:10:58.384Z,46.2
2017-07-04T09:11:57.606Z,45.9
2017-07-04T09:12:56.691Z,46
2017-07-04T09:13:56.044Z,46.4
2017-07-04T09:14:55.892Z,45.8
2017-07-04T09:15:55.111Z,46.5
2017-07-04T09:16:54.604Z,47.1
2017-07-04T09:17:53.574Z,46.5
2017-07-04T09:18:53.172Z,46.5
2017-07-04T09:19:52.401Z,46.5
2017-07-04T09:20:51.623Z,46.7
2017-07-04T09:21:50.846Z,46.3
2017-07-04T09:22:50.588Z,46.8
2017-07-04T09:23:49.691Z,46.8
2017-07-04T09:24:49.306Z,46.2
2017-07-04T09:26:48.172Z,45.3
2017-07-04T09:28:46.665Z,46.2
2017-07-04T09:29:45.772Z,46.4
2017-07-04T09:31:44.895Z,47.1
2017-07-04T09:32:44.240Z,47
2017-07-04T09:33:43.578Z,46.7
2017-07-04T09:34:42.927Z,46.2
2017-07-04T09:35:42.154Z,46.5
2017-07-04T09:36:41.380Z,45.7
2017-07-04T09:37:40.555Z,46.2
2017-07-04T09:38:40.037Z,45.3
2017-07-04T09:39:39.958Z,45
2017-07-04T09:40:38.924Z,45
2017-07-04T09:41:38.274Z,45
2017-07-04T09:42:37.494Z,44.2
2017-07-04T09:43:37.110Z,44.4
2017-07-04T09:44:35.959Z,44.1
2017-07-04T09:45:35.809Z,44.6
2017-07-04T09:46:35.043Z,45
2017-07-04T09:47:34.406Z,44.6
2017-07-04T09:48:33.741Z,44.9
2017-07-04T09:49:32.831Z,44.3
2017-07-04T09:50:32.632Z,45.1
2017-07-04T09:51:31.982Z,45.4
2017-07-04T09:52:31.463Z,45.2
2017-07-04T09:53:30.808Z,45.8
2017-07-04T09:54:30.285Z,45.3
2017-07-04T09:55:29.006Z,45.4
2017-07-04T09:56:28.683Z,44.9
2017-07-04T09:57:28.418Z,43.9
2017-07-04T09:59:26.543Z,44.2
2017-07-04T10:00:26.146Z,45
2017-07-04T10:01:25.246Z,45
2017-07-04T10:02:24.854Z,44
2017-07-04T10:03:24.335Z,42.3
2017-07-04T10:04:23.551Z,42.1
2017-07-04T10:05:23.029Z,40.7
2017-07-04T10:06:22.374Z,40.6
2017-07-04T10:07:21.471Z,40
2017-07-04T10:08:21.195Z,39.7
2017-07-04T10:09:20.550Z,39.8
2017-07-04T10:09:50.710Z,39.8
2017-07-04T10:10:21.249Z,39.9
2017-07-04T10:11:19.222Z,40.4
2017-07-04T10:12:18.954Z,40.6
2017-07-04T10:13:18.298Z,40.8
2017-07-04T10:14:17.643Z,40.5
2017-07-04T10:15:16.868Z,39
2017-07-04T10:16:16.404Z,39
2017-07-04T10:17:15.616Z,39.6
2017-07-04T10:18:14.829Z,38.5
2017-07-04T10:19:14.186Z,39.2
2017-07-04T10:20:13.909Z,39.9
2017-07-04T10:21:13.312Z,40.6
2017-07-04T10:22:13.229Z,40.4
2017-07-04T10:23:11.821Z,40.4
2017-07-04T10:24:11.183Z,40.5
2017-07-04T10:25:10.400Z,40.2
2017-07-04T10:26:09.889Z,40.9
2017-07-04T10:27:09.369Z,40.1
2017-07-04T10:28:08.604Z,40.7
2017-07-04T10:29:08.405Z,40.8
2017-07-04T10:30:07.882Z,41
2017-07-04T10:31:06.588Z,41.6
2017-07-04T10:32:06.053Z,40.7
2017-07-04T10:33:05.646Z,41.6
2017-07-04T10:34:04.986Z,41.6
2017-07-04T10:35:04.337Z,40.1
2017-07-04T10:36:03.796Z,41.1
2017-07-04T10:37:03.018Z,41.6
2017-07-04T10:38:02.751Z,41.9
2017-07-04T10:39:01.969Z,42
2017-07-04T10:40:01.186Z,42
2017-07-04T10:41:00.408Z,42.2
2017-07-04T10:41:59.892Z,42.7
2017-07-04T10:42:59.430Z,42.4
2017-07-04T10:43:58.643Z,42.9
2017-07-04T10:45:57.761Z,42.5
2017-07-04T10:46:56.976Z,42.6
2017-07-04T10:47:56.706Z,42.6
2017-07-04T10:48:55.741Z,42.7
2017-07-04T10:49:54.844Z,42.3
2017-07-04T10:51:54.209Z,42
2017-07-04T10:52:53.560Z,42.3
2017-07-04T10:53:52.669Z,41.9
2017-07-04T10:54:52.159Z,42.6
2017-07-04T10:55:51.373Z,42.6
2017-07-04T10:56:50.580Z,42.1
2017-07-04T10:57:50.174Z,42.2
2017-07-04T10:58:49.778Z,42
2017-07-04T10:59:49.126Z,41.3
2017-07-04T11:00:48.475Z,41.7
2017-07-04T11:01:47.818Z,42.5
2017-07-04T11:02:18.352Z,42.5
2017-07-04T11:02:48.513Z,42.5
2017-07-04T11:03:18.925Z,42.5
2017-07-04T11:03:49.579Z,42.4
2017-07-04T11:04:19.994Z,42.4
2017-07-04T11:04:51.106Z,42.9
2017-07-04T11:05:20.635Z,42.9
2017-07-04T11:06:45.022Z,42
2017-07-04T11:07:44.491Z,42.5
2017-07-04T11:08:43.837Z,42.5
2017-07-04T11:09:43.449Z,42.5
2017-07-04T11:10:42.807Z,42.2
2017-07-04T11:11:41.775Z,42.2
2017-07-04T11:12:41.508Z,42.2
2017-07-04T11:14:40.383Z,42.6
2017-07-04T11:15:39.730Z,43.1
2017-07-04T11:16:38.954Z,43.5
2017-07-04T11:17:38.186Z,42.7
2017-07-04T11:18:37.914Z,42.2
2017-07-04T11:19:37.008Z,41.7
2017-07-04T11:20:36.985Z,41.7
2017-07-04T11:21:36.073Z,41.9
2017-07-04T11:22:35.636Z,42.5
2017-07-04T11:23:34.865Z,43
2017-07-04T11:24:34.737Z,42.6
2017-07-04T11:25:33.960Z,41.8
2017-07-04T11:26:33.057Z,41.8
2017-07-04T11:27:32.781Z,41.8
2017-07-04T11:28:31.934Z,40.5
2017-07-04T11:29:31.853Z,40
2017-07-04T11:30:30.964Z,39.7
2017-07-04T11:31:30.354Z,39.6
2017-07-04T11:32:29.460Z,38.7
2017-07-04T11:33:29.046Z,38.8
2017-07-04T11:34:28.346Z,39.7
2017-07-04T11:35:27.945Z,39.5
2017-07-04T11:35:58.728Z,39.5
2017-07-04T11:36:28.881Z,39.5
2017-07-04T11:37:27.097Z,39
2017-07-04T11:38:26.243Z,39.7
2017-07-04T11:40:25.239Z,39.9
2017-07-04T11:41:24.456Z,40.5
2017-07-04T11:42:23.681Z,41.1
2017-07-04T11:43:23.667Z,40.9
2017-07-04T11:44:22.892Z,40.9
2017-07-04T11:45:22.674Z,40.9
2017-07-04T11:46:21.383Z,40.8
2017-07-04T11:47:21.111Z,39.9
2017-07-04T11:48:20.333Z,40.9
2017-07-04T11:49:19.685Z,41.6
2017-07-04T11:50:19.044Z,41.4
2017-07-04T11:51:18.530Z,40.8
2017-07-04T11:52:17.634Z,41
2017-07-04T11:53:17.163Z,41.8
2017-07-04T11:54:17.028Z,41.6
2017-07-04T11:55:16.399Z,42.2
2017-07-04T11:56:15.485Z,42.6
2017-07-04T11:57:15.916Z,43.4
2017-07-04T11:58:14.536Z,43.4
2017-07-04T11:59:14.006Z,44.1
2017-07-04T12:00:12.977Z,44.4
2017-07-04T12:02:12.091Z,44
2017-07-04T12:03:11.938Z,44
2017-07-04T12:04:11.050Z,45
2017-07-04T12:05:10.521Z,43.8
2017-07-04T12:06:09.738Z,44.1
2017-07-04T12:07:09.330Z,44.5
2017-07-04T12:08:09.048Z,45.2
2017-07-04T12:09:08.148Z,44
2017-07-04T12:10:07.499Z,44.5
2017-07-04T12:11:07.096Z,44.2
2017-07-04T12:12:06.704Z,44.7
2017-07-04T12:13:05.934Z,44.9
2017-07-04T12:14:05.297Z,44.4
2017-07-04T12:15:04.907Z,44.7
2017-07-04T12:17:03.647Z,44.9
2017-07-04T12:18:03.129Z,44.8
2017-07-04T12:19:02.460Z,44.7
2017-07-04T12:20:01.826Z,44.7
2017-07-04T12:21:01.298Z,44.7
2017-07-04T12:22:00.524Z,44.7
2017-07-04T12:23:00.118Z,43.7
2017-07-04T12:23:59.592Z,43.3
2017-07-04T12:24:58.698Z,43
2017-07-04T12:25:58.302Z,42.6
2017-07-04T12:26:57.978Z,41.8
2017-07-04T12:27:57.785Z,41.8
2017-07-04T12:28:56.512Z,42.5
2017-07-04T12:29:56.120Z,41.6
2017-07-04T12:30:55.208Z,42.8
2017-07-04T12:31:25.600Z,42.8
2017-07-04T12:31:56.159Z,43.2
2017-07-04T12:32:26.192Z,43.2
2017-07-04T12:32:56.856Z,43.3
2017-07-04T12:33:26.882Z,43.3
2017-07-04T12:34:53.289Z,42.9
2017-07-04T12:35:52.514Z,42.8
2017-07-04T12:36:52.541Z,42.8
2017-07-04T12:37:51.517Z,42.8
2017-07-04T12:38:51.370Z,42.8
2017-07-04T12:39:50.599Z,43.5
2017-07-04T12:40:49.817Z,42
2017-07-04T12:41:49.292Z,42.9
2017-07-04T12:42:48.655Z,42.3
2017-07-04T12:43:48.257Z,42.8
2017-07-04T12:44:47.984Z,42.4
2017-07-04T12:45:47.206Z,42.1
2017-07-04T12:46:46.417Z,42.3
2017-07-04T12:47:46.022Z,41.8
2017-07-04T12:48:45.643Z,41.2
2017-07-04T12:49:45.246Z,41.5
2017-07-04T12:50:44.788Z,41.4
2017-07-04T12:51:44.017Z,41.6
2017-07-04T12:52:43.375Z,41.8
2017-07-04T12:53:42.857Z,41.6
2017-07-04T12:54:42.209Z,42.4
2017-07-04T12:56:41.323Z,42.9
2017-07-04T12:57:40.429Z,41.5
2017-07-04T12:58:40.038Z,42.2
2017-07-04T12:59:39.507Z,41.9
2017-07-04T13:00:39.237Z,41.3
2017-07-04T13:01:38.462Z,40.5
2017-07-04T13:03:37.017Z,39.5
2017-07-04T13:04:36.867Z,39.9
2017-07-04T13:05:36.200Z,40.8
2017-07-04T13:06:35.607Z,41
2017-07-04T13:07:35.026Z,41.1
2017-07-04T13:08:34.498Z,40.8
2017-07-04T13:09:34.353Z,40.5
2017-07-04T13:10:33.330Z,39.6
2017-07-04T13:11:32.936Z,40.4
2017-07-04T13:12:32.282Z,40.2
2017-07-04T13:13:02.687Z,40.2
2017-07-04T13:13:33.717Z,40.7
2017-07-04T13:14:03.628Z,40.7
2017-07-04T13:14:34.166Z,40.7
2017-07-04T13:15:04.960Z,40.7